This is the latest recevied weather packets stored in our database for station/object E25RIV-1. If no packets are shown the sender has not sent any weather packets the latest 10 day(s).
| Time | Temp. | Humidity | Pressure | Rain* | Wind** | Luminosity | Snow |
|---|---|---|---|---|---|---|---|
| 1778063502 | 27.78° C | 99% | 1002 hPa | - | - | 0 W/m² | - |
| 1778062878 | 28.33° C | 99% | 1002 hPa | - | - | 0 W/m² | - |
| 1778062254 | 28.89° C | 93% | 1002 hPa | - | - | 0 W/m² | - |
| 1778061631 | 29.44° C | 93% | 1003 hPa | - | - | 0 W/m² | - |
| 1778061006 | 31.11° C | 75% | 1004 hPa | - | - | 0 W/m² | - |
| 1778060382 | 32.78° C | 68% | 1003 hPa | - | - | 0 W/m² | - |
| 1778059759 | 33.89° C | 63% | 1002 hPa | - | - | 0 W/m² | - |
| 1778059135 | 33.89° C | 60% | 1000 hPa | - | - | 0 W/m² | - |
| 1778058510 | 35° C | 56% | 997 hPa | - | - | 0 W/m² | - |
| 1778057888 | 36.67° C | 52% | 993 hPa | - | - | 0 W/m² | - |
| 1778057263 | 38.33° C | 46% | 990 hPa | - | - | 0 W/m² | - |
| 1778056639 | 38.33° C | 46% | 990 hPa | - | - | 0 W/m² | - |
| 1778056015 | 38.89° C | 45% | 990 hPa | - | - | 0 W/m² | - |
| 1778055390 | 38.33° C | 46% | 990 hPa | - | - | 0 W/m² | - |
| 1778054766 | 38.33° C | 45% | 989 hPa | - | - | 0 W/m² | - |
| 1778054142 | 38.33° C | 46% | 990 hPa | - | - | 0 W/m² | - |
| 1778053518 | 37.78° C | 47% | 992 hPa | - | - | 0 W/m² | - |
| 1778052894 | 37.22° C | 49% | 992 hPa | - | - | 0 W/m² | - |
| 1778052270 | 37.22° C | 48% | 992 hPa | - | - | 0 W/m² | - |
| 1778051646 | 37.78° C | 49% | 992 hPa | - | - | 0 W/m² | - |
| 1778051022 | 37.78° C | 48% | 992 hPa | - | - | 0 W/m² | - |
| 1778050398 | 37.78° C | 47% | 991 hPa | - | - | 0 W/m² | - |
| 1778049774 | 37.78° C | 49% | 993 hPa | - | - | 0 W/m² | - |
| 1778049150 | 38.33° C | 45% | 990 hPa | - | - | 0 W/m² | - |
| 1778048526 | 37.78° C | 48% | 992 hPa | - | - | 0 W/m² | - |
* Rain since midnight (hover to see other rain measurements)
** Current wind speed in m/s (hover to see current wind gust speed)